sensor_id;sensor_type;location;lat;lon;timestamp;temperature;humidity
22271;DHT22;11304;53.520;10.104;2023-04-25T00:01:38;8.50;99.90
22271;DHT22;11304;53.520;10.104;2023-04-25T00:04:04;8.40;99.90
22271;DHT22;11304;53.520;10.104;2023-04-25T00:06:32;8.40;99.90
22271;DHT22;11304;53.520;10.104;2023-04-25T00:08:58;8.40;99.90
22271;DHT22;11304;53.520;10.104;2023-04-25T00:11:24;8.40;99.90
22271;DHT22;11304;53.520;10.104;2023-04-25T00:13:50;8.40;99.90
22271;DHT22;11304;53.520;10.104;2023-04-25T00:16:19;8.50;99.90
22271;DHT22;11304;53.520;10.104;2023-04-25T00:18:45;8.40;99.90
22271;DHT22;11304;53.520;10.104;2023-04-25T00:21:19;8.40;99.90
22271;DHT22;11304;53.520;10.104;2023-04-25T00:23:46;8.50;99.90
22271;DHT22;11304;53.520;10.104;2023-04-25T00:26:12;8.50;99.90
22271;DHT22;11304;53.520;10.104;2023-04-25T00:28:39;8.50;99.90
22271;DHT22;11304;53.520;10.104;2023-04-25T00:31:06;8.50;99.90
22271;DHT22;11304;53.520;10.104;2023-04-25T00:33:31;8.50;99.90
22271;DHT22;11304;53.520;10.104;2023-04-25T00:35:57;8.50;99.90
22271;DHT22;11304;53.520;10.104;2023-04-25T00:38:23;8.40;99.90
22271;DHT22;11304;53.520;10.104;2023-04-25T00:40:48;8.40;99.90
22271;DHT22;11304;53.520;10.104;2023-04-25T00:43:14;8.30;99.90
22271;DHT22;11304;53.520;10.104;2023-04-25T00:45:40;8.20;99.90
22271;DHT22;11304;53.520;10.104;2023-04-25T00:48:08;8.30;99.90
22271;DHT22;11304;53.520;10.104;2023-04-25T00:50:35;8.30;99.90
22271;DHT22;11304;53.520;10.104;2023-04-25T00:53:02;8.30;99.90
22271;DHT22;11304;53.520;10.104;2023-04-25T00:55:29;8.30;99.90
22271;DHT22;11304;53.520;10.104;2023-04-25T00:57:57;8.30;99.90
22271;DHT22;11304;53.520;10.104;2023-04-25T01:00:23;8.40;99.90
22271;DHT22;11304;53.520;10.104;2023-04-25T01:02:48;8.30;99.90
22271;DHT22;11304;53.520;10.104;2023-04-25T01:05:15;8.30;99.90
22271;DHT22;11304;53.520;10.104;2023-04-25T01:07:41;8.20;99.90
22271;DHT22;11304;53.520;10.104;2023-04-25T01:10:07;8.30;99.90
22271;DHT22;11304;53.520;10.104;2023-04-25T01:12:34;8.20;99.90
22271;DHT22;11304;53.520;10.104;2023-04-25T01:15:00;8.20;99.90
22271;DHT22;11304;53.520;10.104;2023-04-25T01:17:26;8.20;99.90
22271;DHT22;11304;53.520;10.104;2023-04-25T01:19:53;8.20;99.90
22271;DHT22;11304;53.520;10.104;2023-04-25T01:22:18;8.30;99.90
22271;DHT22;11304;53.520;10.104;2023-04-25T01:24:45;8.20;99.90
22271;DHT22;11304;53.520;10.104;2023-04-25T01:27:10;8.20;99.90
22271;DHT22;11304;53.520;10.104;2023-04-25T01:29:37;8.20;99.90
22271;DHT22;11304;53.520;10.104;2023-04-25T01:32:03;8.20;99.90
22271;DHT22;11304;53.520;10.104;2023-04-25T01:34:30;8.10;99.90
22271;DHT22;11304;53.520;10.104;2023-04-25T01:36:56;8.10;99.90
22271;DHT22;11304;53.520;10.104;2023-04-25T01:39:21;8.10;99.90
22271;DHT22;11304;53.520;10.104;2023-04-25T01:41:47;8.10;99.90
22271;DHT22;11304;53.520;10.104;2023-04-25T01:44:13;8.10;99.90
22271;DHT22;11304;53.520;10.104;2023-04-25T01:46:40;8.20;99.90
22271;DHT22;11304;53.520;10.104;2023-04-25T01:49:06;8.10;99.90
22271;DHT22;11304;53.520;10.104;2023-04-25T01:51:32;8.00;99.90
22271;DHT22;11304;53.520;10.104;2023-04-25T01:53:58;8.00;99.90
22271;DHT22;11304;53.520;10.104;2023-04-25T01:56:24;7.90;99.90
22271;DHT22;11304;53.520;10.104;2023-04-25T01:58:51;7.90;99.90
22271;DHT22;11304;53.520;10.104;2023-04-25T02:01:17;7.90;99.90
22271;DHT22;11304;53.520;10.104;2023-04-25T02:03:43;7.80;99.90
22271;DHT22;11304;53.520;10.104;2023-04-25T02:06:09;7.80;99.90
22271;DHT22;11304;53.520;10.104;2023-04-25T02:08:35;7.80;99.90
22271;DHT22;11304;53.520;10.104;2023-04-25T02:11:02;7.80;99.90
22271;DHT22;11304;53.520;10.104;2023-04-25T02:13:28;7.80;99.90
22271;DHT22;11304;53.520;10.104;2023-04-25T02:15:54;7.80;99.90
22271;DHT22;11304;53.520;10.104;2023-04-25T02:18:20;7.70;99.90
22271;DHT22;11304;53.520;10.104;2023-04-25T02:20:46;7.80;99.90
22271;DHT22;11304;53.520;10.104;2023-04-25T02:23:12;7.70;99.90
22271;DHT22;11304;53.520;10.104;2023-04-25T02:25:38;7.70;99.90
22271;DHT22;11304;53.520;10.104;2023-04-25T02:28:04;7.70;99.90
22271;DHT22;11304;53.520;10.104;2023-04-25T02:30:29;7.60;99.90
22271;DHT22;11304;53.520;10.104;2023-04-25T02:32:55;7.60;99.90
22271;DHT22;11304;53.520;10.104;2023-04-25T02:35:21;7.70;99.90
22271;DHT22;11304;53.520;10.104;2023-04-25T02:37:47;7.70;99.90
22271;DHT22;11304;53.520;10.104;2023-04-25T02:40:13;7.70;99.90
22271;DHT22;11304;53.520;10.104;2023-04-25T02:42:39;7.60;99.90
22271;DHT22;11304;53.520;10.104;2023-04-25T02:45:05;7.60;99.90
22271;DHT22;11304;53.520;10.104;2023-04-25T02:47:31;7.50;99.90
22271;DHT22;11304;53.520;10.104;2023-04-25T02:49:56;7.50;99.90
22271;DHT22;11304;53.520;10.104;2023-04-25T02:52:22;7.50;99.90
22271;DHT22;11304;53.520;10.104;2023-04-25T02:54:48;7.50;99.90
22271;DHT22;11304;53.520;10.104;2023-04-25T02:57:13;7.50;99.90
22271;DHT22;11304;53.520;10.104;2023-04-25T02:59:40;7.60;99.90
22271;DHT22;11304;53.520;10.104;2023-04-25T03:02:05;7.50;99.90
22271;DHT22;11304;53.520;10.104;2023-04-25T03:04:31;7.50;99.90
22271;DHT22;11304;53.520;10.104;2023-04-25T03:06:59;7.50;99.90
22271;DHT22;11304;53.520;10.104;2023-04-25T03:09:25;7.50;99.90
22271;DHT22;11304;53.520;10.104;2023-04-25T03:11:50;7.50;99.90
22271;DHT22;11304;53.520;10.104;2023-04-25T03:14:16;7.30;99.90
22271;DHT22;11304;53.520;10.104;2023-04-25T03:16:42;7.40;99.90
22271;DHT22;11304;53.520;10.104;2023-04-25T03:19:07;7.30;99.90
22271;DHT22;11304;53.520;10.104;2023-04-25T03:21:34;7.30;99.90
22271;DHT22;11304;53.520;10.104;2023-04-25T03:24:02;7.20;99.90
22271;DHT22;11304;53.520;10.104;2023-04-25T03:26:28;7.20;99.90
22271;DHT22;11304;53.520;10.104;2023-04-25T03:28:54;7.20;99.90
22271;DHT22;11304;53.520;10.104;2023-04-25T03:31:20;7.10;99.90
22271;DHT22;11304;53.520;10.104;2023-04-25T03:33:45;7.10;99.90
22271;DHT22;11304;53.520;10.104;2023-04-25T03:36:11;7.00;99.90
22271;DHT22;11304;53.520;10.104;2023-04-25T03:38:37;7.00;99.90
22271;DHT22;11304;53.520;10.104;2023-04-25T03:41:02;6.90;99.90
22271;DHT22;11304;53.520;10.104;2023-04-25T03:43:28;6.80;99.90
22271;DHT22;11304;53.520;10.104;2023-04-25T03:45:54;6.90;99.90
22271;DHT22;11304;53.520;10.104;2023-04-25T03:48:20;6.80;99.90
22271;DHT22;11304;53.520;10.104;2023-04-25T03:50:50;6.70;99.90
22271;DHT22;11304;53.520;10.104;2023-04-25T03:53:16;6.80;99.90
22271;DHT22;11304;53.520;10.104;2023-04-25T03:55:41;6.80;99.90
22271;DHT22;11304;53.520;10.104;2023-04-25T03:58:07;6.80;99.90
22271;DHT22;11304;53.520;10.104;2023-04-25T04:00:34;6.80;99.90
22271;DHT22;11304;53.520;10.104;2023-04-25T04:03:00;6.80;99.90
22271;DHT22;11304;53.520;10.104;2023-04-25T04:05:26;6.80;99.90
22271;DHT22;11304;53.520;10.104;2023-04-25T04:07:53;6.80;99.90
22271;DHT22;11304;53.520;10.104;2023-04-25T04:10:19;6.80;99.90
22271;DHT22;11304;53.520;10.104;2023-04-25T04:12:44;7.00;99.90
22271;DHT22;11304;53.520;10.104;2023-04-25T04:15:10;7.00;99.90
22271;DHT22;11304;53.520;10.104;2023-04-25T04:17:36;7.00;99.90
22271;DHT22;11304;53.520;10.104;2023-04-25T04:20:02;6.90;99.90
22271;DHT22;11304;53.520;10.104;2023-04-25T04:22:29;6.90;99.90
22271;DHT22;11304;53.520;10.104;2023-04-25T04:24:55;6.80;99.90
22271;DHT22;11304;53.520;10.104;2023-04-25T04:27:22;6.80;99.90
22271;DHT22;11304;53.520;10.104;2023-04-25T04:29:48;6.80;99.90
22271;DHT22;11304;53.520;10.104;2023-04-25T04:32:15;6.80;99.90
22271;DHT22;11304;53.520;10.104;2023-04-25T04:34:41;6.70;99.90
22271;DHT22;11304;53.520;10.104;2023-04-25T04:37:07;6.70;99.90
22271;DHT22;11304;53.520;10.104;2023-04-25T04:39:36;6.70;99.90
22271;DHT22;11304;53.520;10.104;2023-04-25T04:42:02;6.80;99.90
22271;DHT22;11304;53.520;10.104;2023-04-25T04:44:29;6.80;99.90
22271;DHT22;11304;53.520;10.104;2023-04-25T04:46:58;7.00;99.90
22271;DHT22;11304;53.520;10.104;2023-04-25T04:49:24;7.10;99.90
22271;DHT22;11304;53.520;10.104;2023-04-25T04:51:50;7.30;99.90
22271;DHT22;11304;53.520;10.104;2023-04-25T04:54:16;7.40;99.90
22271;DHT22;11304;53.520;10.104;2023-04-25T04:56:41;7.40;99.90
22271;DHT22;11304;53.520;10.104;2023-04-25T04:59:07;7.40;99.90
22271;DHT22;11304;53.520;10.104;2023-04-25T05:01:33;7.30;99.90
22271;DHT22;11304;53.520;10.104;2023-04-25T05:04:01;7.30;99.90
22271;DHT22;11304;53.520;10.104;2023-04-25T05:06:28;7.30;99.90
22271;DHT22;11304;53.520;10.104;2023-04-25T05:08:55;7.30;99.90
22271;DHT22;11304;53.520;10.104;2023-04-25T05:11:21;7.30;99.90
22271;DHT22;11304;53.520;10.104;2023-04-25T05:13:47;7.30;99.90
22271;DHT22;11304;53.520;10.104;2023-04-25T05:16:13;7.30;99.90
22271;DHT22;11304;53.520;10.104;2023-04-25T05:18:39;7.40;99.90
22271;DHT22;11304;53.520;10.104;2023-04-25T05:21:05;7.30;99.90
22271;DHT22;11304;53.520;10.104;2023-04-25T05:23:32;7.20;99.90
22271;DHT22;11304;53.520;10.104;2023-04-25T05:25:58;7.30;99.90
22271;DHT22;11304;53.520;10.104;2023-04-25T05:28:23;7.30;99.90
22271;DHT22;11304;53.520;10.104;2023-04-25T05:30:49;7.20;99.90
22271;DHT22;11304;53.520;10.104;2023-04-25T05:33:15;7.20;99.90
22271;DHT22;11304;53.520;10.104;2023-04-25T05:35:42;7.10;99.90
22271;DHT22;11304;53.520;10.104;2023-04-25T05:38:07;6.90;99.90
22271;DHT22;11304;53.520;10.104;2023-04-25T05:40:33;6.80;99.90
22271;DHT22;11304;53.520;10.104;2023-04-25T05:42:59;6.80;99.90
22271;DHT22;11304;53.520;10.104;2023-04-25T05:45:25;6.80;99.90
22271;DHT22;11304;53.520;10.104;2023-04-25T05:47:51;6.80;99.90
22271;DHT22;11304;53.520;10.104;2023-04-25T05:50:16;6.90;99.90
22271;DHT22;11304;53.520;10.104;2023-04-25T05:52:42;6.90;99.90
22271;DHT22;11304;53.520;10.104;2023-04-25T05:55:08;6.90;99.90
22271;DHT22;11304;53.520;10.104;2023-04-25T05:57:34;6.90;99.90
22271;DHT22;11304;53.520;10.104;2023-04-25T06:00:00;7.00;99.90
22271;DHT22;11304;53.520;10.104;2023-04-25T06:02:26;7.10;99.90
22271;DHT22;11304;53.520;10.104;2023-04-25T06:04:52;7.30;99.90
22271;DHT22;11304;53.520;10.104;2023-04-25T06:07:21;7.30;99.90
22271;DHT22;11304;53.520;10.104;2023-04-25T06:09:47;7.40;99.90
22271;DHT22;11304;53.520;10.104;2023-04-25T06:12:13;7.30;99.90
22271;DHT22;11304;53.520;10.104;2023-04-25T06:14:38;7.40;99.90
22271;DHT22;11304;53.520;10.104;2023-04-25T06:17:04;7.50;99.90
22271;DHT22;11304;53.520;10.104;2023-04-25T06:19:34;7.60;99.90
22271;DHT22;11304;53.520;10.104;2023-04-25T06:22:01;7.60;99.90
22271;DHT22;11304;53.520;10.104;2023-04-25T06:24:27;7.60;99.90
22271;DHT22;11304;53.520;10.104;2023-04-25T06:26:53;7.70;99.90
22271;DHT22;11304;53.520;10.104;2023-04-25T06:29:19;7.80;99.90
22271;DHT22;11304;53.520;10.104;2023-04-25T06:31:44;7.80;99.90
22271;DHT22;11304;53.520;10.104;2023-04-25T06:34:10;7.90;99.90
22271;DHT22;11304;53.520;10.104;2023-04-25T06:36:36;7.90;99.90
22271;DHT22;11304;53.520;10.104;2023-04-25T06:39:01;7.90;99.90
22271;DHT22;11304;53.520;10.104;2023-04-25T06:41:27;7.80;99.90
22271;DHT22;11304;53.520;10.104;2023-04-25T06:43:53;7.80;99.90
22271;DHT22;11304;53.520;10.104;2023-04-25T06:46:19;7.80;99.90
22271;DHT22;11304;53.520;10.104;2023-04-25T06:48:45;7.80;99.90
22271;DHT22;11304;53.520;10.104;2023-04-25T06:51:11;7.80;99.90
22271;DHT22;11304;53.520;10.104;2023-04-25T06:53:38;7.90;99.90
22271;DHT22;11304;53.520;10.104;2023-04-25T06:56:04;7.90;99.90
22271;DHT22;11304;53.520;10.104;2023-04-25T06:58:30;7.90;99.90
22271;DHT22;11304;53.520;10.104;2023-04-25T07:00:56;8.00;99.90
22271;DHT22;11304;53.520;10.104;2023-04-25T07:03:22;8.10;99.90
22271;DHT22;11304;53.520;10.104;2023-04-25T07:05:48;8.20;99.90
22271;DHT22;11304;53.520;10.104;2023-04-25T07:08:13;8.20;99.90
22271;DHT22;11304;53.520;10.104;2023-04-25T07:10:39;8.20;99.90
22271;DHT22;11304;53.520;10.104;2023-04-25T07:13:05;8.30;99.90
22271;DHT22;11304;53.520;10.104;2023-04-25T07:15:31;8.40;99.90
22271;DHT22;11304;53.520;10.104;2023-04-25T07:17:56;8.40;99.90
22271;DHT22;11304;53.520;10.104;2023-04-25T07:20:22;8.40;99.90
22271;DHT22;11304;53.520;10.104;2023-04-25T07:22:48;8.50;99.90
22271;DHT22;11304;53.520;10.104;2023-04-25T07:25:15;8.50;99.90
22271;DHT22;11304;53.520;10.104;2023-04-25T07:27:41;8.60;99.90
22271;DHT22;11304;53.520;10.104;2023-04-25T07:30:07;8.70;99.90
22271;DHT22;11304;53.520;10.104;2023-04-25T07:32:33;8.60;99.90
22271;DHT22;11304;53.520;10.104;2023-04-25T07:34:59;8.50;99.90
22271;DHT22;11304;53.520;10.104;2023-04-25T07:37:25;8.50;99.90
22271;DHT22;11304;53.520;10.104;2023-04-25T07:39:51;8.50;99.90
22271;DHT22;11304;53.520;10.104;2023-04-25T07:42:17;8.50;99.90
22271;DHT22;11304;53.520;10.104;2023-04-25T07:44:42;8.50;99.90
22271;DHT22;11304;53.520;10.104;2023-04-25T07:47:09;8.40;99.90
22271;DHT22;11304;53.520;10.104;2023-04-25T07:49:36;8.30;99.90
22271;DHT22;11304;53.520;10.104;2023-04-25T07:52:03;8.20;99.90
22271;DHT22;11304;53.520;10.104;2023-04-25T07:54:29;8.20;99.90
22271;DHT22;11304;53.520;10.104;2023-04-25T07:56:55;8.20;99.90
22271;DHT22;11304;53.520;10.104;2023-04-25T07:59:21;8.40;99.90
22271;DHT22;11304;53.520;10.104;2023-04-25T08:01:47;8.60;99.90
22271;DHT22;11304;53.520;10.104;2023-04-25T08:04:13;8.90;99.90
22271;DHT22;11304;53.520;10.104;2023-04-25T08:06:39;9.10;99.90
22271;DHT22;11304;53.520;10.104;2023-04-25T08:09:06;9.20;99.90
22271;DHT22;11304;53.520;10.104;2023-04-25T08:11:33;9.40;99.90
22271;DHT22;11304;53.520;10.104;2023-04-25T08:13:58;9.60;99.90
22271;DHT22;11304;53.520;10.104;2023-04-25T08:16:24;9.60;99.90
22271;DHT22;11304;53.520;10.104;2023-04-25T08:18:50;9.70;99.90
22271;DHT22;11304;53.520;10.104;2023-04-25T08:21:16;9.70;99.90
22271;DHT22;11304;53.520;10.104;2023-04-25T08:23:42;9.70;99.90
22271;DHT22;11304;53.520;10.104;2023-04-25T08:26:07;9.60;99.90
22271;DHT22;11304;53.520;10.104;2023-04-25T08:28:33;9.70;99.90
22271;DHT22;11304;53.520;10.104;2023-04-25T08:30:59;9.80;99.90
22271;DHT22;11304;53.520;10.104;2023-04-25T08:33:25;9.70;99.90
22271;DHT22;11304;53.520;10.104;2023-04-25T08:35:51;9.60;99.90
22271;DHT22;11304;53.520;10.104;2023-04-25T08:38:18;9.40;99.90
22271;DHT22;11304;53.520;10.104;2023-04-25T08:40:44;9.30;99.90
22271;DHT22;11304;53.520;10.104;2023-04-25T08:43:12;9.30;99.90
22271;DHT22;11304;53.520;10.104;2023-04-25T08:45:39;9.40;99.90
22271;DHT22;11304;53.520;10.104;2023-04-25T08:48:12;9.50;99.90
22271;DHT22;11304;53.520;10.104;2023-04-25T08:50:56;9.50;99.90
22271;DHT22;11304;53.520;10.104;2023-04-25T08:53:30;9.50;99.90
22271;DHT22;11304;53.520;10.104;2023-04-25T08:55:58;9.30;99.90
22271;DHT22;11304;53.520;10.104;2023-04-25T08:58:24;9.50;99.90
22271;DHT22;11304;53.520;10.104;2023-04-25T09:00:51;9.50;99.90
22271;DHT22;11304;53.520;10.104;2023-04-25T09:03:17;9.40;99.90
22271;DHT22;11304;53.520;10.104;2023-04-25T09:05:43;9.30;99.90
22271;DHT22;11304;53.520;10.104;2023-04-25T09:08:09;9.30;99.90
22271;DHT22;11304;53.520;10.104;2023-04-25T09:10:35;9.10;99.90
22271;DHT22;11304;53.520;10.104;2023-04-25T09:13:08;9.00;99.90
22271;DHT22;11304;53.520;10.104;2023-04-25T09:15:50;8.90;99.90
22271;DHT22;11304;53.520;10.104;2023-04-25T09:20:57;9.10;99.90
22271;DHT22;11304;53.520;10.104;2023-04-25T09:23:24;9.10;99.90
22271;DHT22;11304;53.520;10.104;2023-04-25T09:25:51;9.00;99.90
22271;DHT22;11304;53.520;10.104;2023-04-25T09:28:24;9.10;99.90
22271;DHT22;11304;53.520;10.104;2023-04-25T09:30:55;9.10;99.90
22271;DHT22;11304;53.520;10.104;2023-04-25T09:33:30;8.90;99.90
22271;DHT22;11304;53.520;10.104;2023-04-25T09:36:10;9.10;99.90
22271;DHT22;11304;53.520;10.104;2023-04-25T09:38:43;9.20;99.90
22271;DHT22;11304;53.520;10.104;2023-04-25T09:41:10;9.20;99.90
22271;DHT22;11304;53.520;10.104;2023-04-25T09:43:36;9.30;99.90
22271;DHT22;11304;53.520;10.104;2023-04-25T09:46:02;9.80;99.90
22271;DHT22;11304;53.520;10.104;2023-04-25T09:48:32;10.50;99.90
22271;DHT22;11304;53.520;10.104;2023-04-25T09:51:08;10.90;99.90
22271;DHT22;11304;53.520;10.104;2023-04-25T09:53:36;10.60;99.90
22271;DHT22;11304;53.520;10.104;2023-04-25T09:56:07;10.00;99.90
22271;DHT22;11304;53.520;10.104;2023-04-25T09:58:33;9.40;99.90
22271;DHT22;11304;53.520;10.104;2023-04-25T10:01:01;9.30;99.90
22271;DHT22;11304;53.520;10.104;2023-04-25T10:03:30;9.50;99.90
22271;DHT22;11304;53.520;10.104;2023-04-25T10:05:59;9.60;99.90
22271;DHT22;11304;53.520;10.104;2023-04-25T10:08:30;9.60;99.90
22271;DHT22;11304;53.520;10.104;2023-04-25T10:10:59;9.50;99.90
22271;DHT22;11304;53.520;10.104;2023-04-25T10:13:27;9.50;99.90
22271;DHT22;11304;53.520;10.104;2023-04-25T10:15:54;9.80;99.90
22271;DHT22;11304;53.520;10.104;2023-04-25T10:18:20;9.80;99.90
22271;DHT22;11304;53.520;10.104;2023-04-25T10:20:46;9.90;99.90
22271;DHT22;11304;53.520;10.104;2023-04-25T10:23:15;10.20;99.90
22271;DHT22;11304;53.520;10.104;2023-04-25T10:25:42;10.70;99.90
22271;DHT22;11304;53.520;10.104;2023-04-25T10:28:09;10.80;99.90
22271;DHT22;11304;53.520;10.104;2023-04-25T10:30:34;11.10;99.90
22271;DHT22;11304;53.520;10.104;2023-04-25T10:33:00;11.40;99.90
22271;DHT22;11304;53.520;10.104;2023-04-25T10:35:30;11.40;99.90
22271;DHT22;11304;53.520;10.104;2023-04-25T10:38:00;11.10;99.90
22271;DHT22;11304;53.520;10.104;2023-04-25T10:40:28;11.10;99.90
22271;DHT22;11304;53.520;10.104;2023-04-25T10:42:54;10.90;99.90
22271;DHT22;11304;53.520;10.104;2023-04-25T10:45:20;11.10;99.90
22271;DHT22;11304;53.520;10.104;2023-04-25T10:47:46;11.50;99.90
22271;DHT22;11304;53.520;10.104;2023-04-25T10:50:14;11.50;99.90
22271;DHT22;11304;53.520;10.104;2023-04-25T10:52:41;11.30;99.90
22271;DHT22;11304;53.520;10.104;2023-04-25T10:55:07;11.10;99.90
22271;DHT22;11304;53.520;10.104;2023-04-25T10:57:44;11.00;99.90
22271;DHT22;11304;53.520;10.104;2023-04-25T11:00:22;10.90;99.90
22271;DHT22;11304;53.520;10.104;2023-04-25T11:02:52;10.80;99.90
22271;DHT22;11304;53.520;10.104;2023-04-25T11:07:54;10.70;99.90
22271;DHT22;11304;53.520;10.104;2023-04-25T11:10:27;10.70;99.90
22271;DHT22;11304;53.520;10.104;2023-04-25T11:12:53;10.70;99.90
22271;DHT22;11304;53.520;10.104;2023-04-25T11:15:19;10.70;99.90
22271;DHT22;11304;53.520;10.104;2023-04-25T11:17:44;10.80;99.90
22271;DHT22;11304;53.520;10.104;2023-04-25T11:20:13;10.80;99.90
22271;DHT22;11304;53.520;10.104;2023-04-25T11:22:39;10.80;99.90
22271;DHT22;11304;53.520;10.104;2023-04-25T11:25:10;10.80;99.90
22271;DHT22;11304;53.520;10.104;2023-04-25T11:27:53;11.10;99.90
22271;DHT22;11304;53.520;10.104;2023-04-25T11:30:20;11.50;99.90
22271;DHT22;11304;53.520;10.104;2023-04-25T11:32:46;12.00;99.90
22271;DHT22;11304;53.520;10.104;2023-04-25T11:35:13;12.30;99.90
22271;DHT22;11304;53.520;10.104;2023-04-25T11:37:39;12.70;99.90
22271;DHT22;11304;53.520;10.104;2023-04-25T11:40:06;13.10;99.90
22271;DHT22;11304;53.520;10.104;2023-04-25T11:42:34;13.00;99.90
22271;DHT22;11304;53.520;10.104;2023-04-25T11:45:00;12.90;99.90
22271;DHT22;11304;53.520;10.104;2023-04-25T11:47:30;12.60;99.90
22271;DHT22;11304;53.520;10.104;2023-04-25T11:49:57;11.60;99.90
22271;DHT22;11304;53.520;10.104;2023-04-25T11:52:22;10.60;99.90
22271;DHT22;11304;53.520;10.104;2023-04-25T11:54:48;10.00;99.90
22271;DHT22;11304;53.520;10.104;2023-04-25T11:57:14;9.60;99.90
22271;DHT22;11304;53.520;10.104;2023-04-25T11:59:39;9.50;99.90
22271;DHT22;11304;53.520;10.104;2023-04-25T12:02:05;9.40;99.90
22271;DHT22;11304;53.520;10.104;2023-04-25T12:04:32;9.60;99.90
22271;DHT22;11304;53.520;10.104;2023-04-25T12:06:58;9.80;99.90
22271;DHT22;11304;53.520;10.104;2023-04-25T12:09:31;10.10;99.90
22271;DHT22;11304;53.520;10.104;2023-04-25T12:11:58;10.20;99.90
22271;DHT22;11304;53.520;10.104;2023-04-25T12:14:26;10.50;99.90
22271;DHT22;11304;53.520;10.104;2023-04-25T12:16:54;10.50;99.90
22271;DHT22;11304;53.520;10.104;2023-04-25T12:19:21;10.90;99.90
22271;DHT22;11304;53.520;10.104;2023-04-25T12:21:47;11.40;99.90
22271;DHT22;11304;53.520;10.104;2023-04-25T12:24:18;11.60;99.90
22271;DHT22;11304;53.520;10.104;2023-04-25T12:26:52;12.10;99.90
22271;DHT22;11304;53.520;10.104;2023-04-25T12:29:19;12.10;99.90
22271;DHT22;11304;53.520;10.104;2023-04-25T12:31:45;12.20;99.90
22271;DHT22;11304;53.520;10.104;2023-04-25T12:34:12;12.50;99.90
22271;DHT22;11304;53.520;10.104;2023-04-25T12:36:37;12.70;99.90
22271;DHT22;11304;53.520;10.104;2023-04-25T12:39:04;12.40;99.90
22271;DHT22;11304;53.520;10.104;2023-04-25T12:41:30;12.00;99.90
22271;DHT22;11304;53.520;10.104;2023-04-25T12:43:56;11.80;99.90
22271;DHT22;11304;53.520;10.104;2023-04-25T12:46:22;11.20;99.90
22271;DHT22;11304;53.520;10.104;2023-04-25T12:48:50;11.20;99.90
22271;DHT22;11304;53.520;10.104;2023-04-25T12:51:16;11.20;99.90
22271;DHT22;11304;53.520;10.104;2023-04-25T12:53:42;11.40;99.90
22271;DHT22;11304;53.520;10.104;2023-04-25T12:56:08;11.80;99.90
22271;DHT22;11304;53.520;10.104;2023-04-25T12:58:34;12.10;99.90
22271;DHT22;11304;53.520;10.104;2023-04-25T13:00:59;12.30;99.90
22271;DHT22;11304;53.520;10.104;2023-04-25T13:03:25;12.40;99.90
22271;DHT22;11304;53.520;10.104;2023-04-25T13:05:51;12.10;99.90
22271;DHT22;11304;53.520;10.104;2023-04-25T13:08:20;11.70;99.90
22271;DHT22;11304;53.520;10.104;2023-04-25T13:10:47;11.20;99.90
22271;DHT22;11304;53.520;10.104;2023-04-25T13:13:13;10.70;99.90
22271;DHT22;11304;53.520;10.104;2023-04-25T13:15:39;10.60;99.90
22271;DHT22;11304;53.520;10.104;2023-04-25T13:18:04;10.90;99.90
22271;DHT22;11304;53.520;10.104;2023-04-25T13:20:33;11.00;99.90
22271;DHT22;11304;53.520;10.104;2023-04-25T13:22:59;11.00;99.90
22271;DHT22;11304;53.520;10.104;2023-04-25T13:25:25;10.80;99.90
22271;DHT22;11304;53.520;10.104;2023-04-25T13:27:51;10.60;99.90
22271;DHT22;11304;53.520;10.104;2023-04-25T13:30:17;10.40;99.90
22271;DHT22;11304;53.520;10.104;2023-04-25T13:32:42;9.80;99.90
22271;DHT22;11304;53.520;10.104;2023-04-25T13:35:11;9.10;99.90
22271;DHT22;11304;53.520;10.104;2023-04-25T13:37:38;8.60;99.90
22271;DHT22;11304;53.520;10.104;2023-04-25T13:40:07;8.20;99.90
22271;DHT22;11304;53.520;10.104;2023-04-25T13:42:34;8.30;99.90
22271;DHT22;11304;53.520;10.104;2023-04-25T13:45:00;8.40;99.90
22271;DHT22;11304;53.520;10.104;2023-04-25T13:47:27;8.70;99.90
22271;DHT22;11304;53.520;10.104;2023-04-25T13:49:53;9.10;99.90
22271;DHT22;11304;53.520;10.104;2023-04-25T13:52:19;9.60;99.90
22271;DHT22;11304;53.520;10.104;2023-04-25T13:54:44;10.10;99.90
22271;DHT22;11304;53.520;10.104;2023-04-25T13:57:10;10.40;99.90
22271;DHT22;11304;53.520;10.104;2023-04-25T13:59:37;10.80;99.90
22271;DHT22;11304;53.520;10.104;2023-04-25T14:02:03;10.20;99.90
22271;DHT22;11304;53.520;10.104;2023-04-25T14:04:28;10.10;99.90
22271;DHT22;11304;53.520;10.104;2023-04-25T14:06:55;9.20;99.90
22271;DHT22;11304;53.520;10.104;2023-04-25T14:09:21;8.40;99.90
22271;DHT22;11304;53.520;10.104;2023-04-25T14:11:51;8.00;99.90
22271;DHT22;11304;53.520;10.104;2023-04-25T14:14:18;7.80;99.90
22271;DHT22;11304;53.520;10.104;2023-04-25T14:16:44;7.80;99.90
22271;DHT22;11304;53.520;10.104;2023-04-25T14:19:11;7.70;99.90
22271;DHT22;11304;53.520;10.104;2023-04-25T14:21:36;7.90;99.90
22271;DHT22;11304;53.520;10.104;2023-04-25T14:24:02;8.00;99.90
22271;DHT22;11304;53.520;10.104;2023-04-25T14:26:28;8.20;99.90
22271;DHT22;11304;53.520;10.104;2023-04-25T14:28:55;8.70;99.90
22271;DHT22;11304;53.520;10.104;2023-04-25T14:31:21;9.20;99.90
22271;DHT22;11304;53.520;10.104;2023-04-25T14:33:47;9.50;99.90
22271;DHT22;11304;53.520;10.104;2023-04-25T14:36:13;9.90;99.90
22271;DHT22;11304;53.520;10.104;2023-04-25T14:38:39;10.20;99.90
22271;DHT22;11304;53.520;10.104;2023-04-25T14:41:05;10.30;99.90
22271;DHT22;11304;53.520;10.104;2023-04-25T14:43:31;10.30;99.90
22271;DHT22;11304;53.520;10.104;2023-04-25T14:45:56;10.10;99.90
22271;DHT22;11304;53.520;10.104;2023-04-25T14:48:22;10.00;99.90
22271;DHT22;11304;53.520;10.104;2023-04-25T14:50:48;9.90;99.90
22271;DHT22;11304;53.520;10.104;2023-04-25T14:53:14;9.70;99.90
22271;DHT22;11304;53.520;10.104;2023-04-25T14:55:40;9.80;99.90
22271;DHT22;11304;53.520;10.104;2023-04-25T14:58:06;10.20;99.90
22271;DHT22;11304;53.520;10.104;2023-04-25T15:00:32;10.40;99.90
22271;DHT22;11304;53.520;10.104;2023-04-25T15:02:58;10.60;99.90
22271;DHT22;11304;53.520;10.104;2023-04-25T15:05:24;10.80;99.90
22271;DHT22;11304;53.520;10.104;2023-04-25T15:07:50;10.90;99.90
22271;DHT22;11304;53.520;10.104;2023-04-25T15:10:17;11.20;99.90
22271;DHT22;11304;53.520;10.104;2023-04-25T15:12:44;11.60;99.90
22271;DHT22;11304;53.520;10.104;2023-04-25T15:15:10;11.70;99.90
22271;DHT22;11304;53.520;10.104;2023-04-25T15:17:42;11.50;99.90
22271;DHT22;11304;53.520;10.104;2023-04-25T15:20:10;11.00;99.90
22271;DHT22;11304;53.520;10.104;2023-04-25T15:22:37;10.70;99.90
22271;DHT22;11304;53.520;10.104;2023-04-25T15:25:03;10.50;99.90
22271;DHT22;11304;53.520;10.104;2023-04-25T15:27:29;10.30;99.90
22271;DHT22;11304;53.520;10.104;2023-04-25T15:29:56;10.20;99.90